Time;durP1;ratioP1;P1;durP2;ratioP2;P2;SDS_P1;SDS_P2;PMS_P1;PMS_P2;Temp;Humidity;BMP_temperature;BMP_pressure;BME280_temperature;BME280_humidity;BME280_pressure;Samples;Min_cycle;Max_cycle;Signal;HPM_P1;HPM_P2
2023/11/16 05:02:12;;;;;;;1.40;0.40;;;8.30;99.90;;;;;;5156655;23;20249;-74
2023/11/16 05:04:38;;;;;;;0.20;0.20;;;8.20;99.90;;;;;;4991336;28;20582;-74
2023/11/16 05:07:05;;;;;;;0.20;0.20;;;8.20;99.90;;;;;;4988418;28;20207;-74
2023/11/16 05:09:32;;;;;;;0.30;0.30;;;8.10;99.90;;;;;;4991326;28;20288;-74
2023/11/16 05:12:00;;;;;;;0.25;0.25;;;8.10;99.90;;;;;;4995502;28;20277;-74
2023/11/16 05:14:27;;;;;;;1.10;0.40;;;8.10;99.90;;;;;;4993537;28;20228;-74
2023/11/16 05:16:53;;;;;;;1.08;0.45;;;8.00;99.90;;;;;;4994152;28;20209;-74
2023/11/16 05:19:21;;;;;;;3.90;0.60;;;8.00;99.90;;;;;;4992547;28;20203;-74
2023/11/16 05:21:48;;;;;;;0.20;0.20;;;8.00;99.90;;;;;;4989636;28;20551;-74
2023/11/16 05:24:16;;;;;;;0.20;0.20;;;8.00;99.90;;;;;;4992397;28;20230;-74
2023/11/16 05:26:44;;;;;;;0.50;0.50;;;8.00;99.90;;;;;;4993721;28;20216;-74
2023/11/16 05:29:12;;;;;;;0.40;0.40;;;7.90;99.90;;;;;;4996732;28;20200;-74
2023/11/16 05:31:38;;;;;;;0.28;0.28;;;7.90;99.90;;;;;;4992228;28;20712;-74
2023/11/16 05:34:07;;;;;;;0.30;0.30;;;7.80;99.90;;;;;;4990555;28;20220;-74
2023/11/16 05:36:35;;;;;;;0.40;0.30;;;7.70;99.90;;;;;;4990828;28;20216;-75
2023/11/16 05:39:04;;;;;;;3.95;0.43;;;7.70;99.90;;;;;;4983797;28;20218;-74
2023/11/16 05:41:31;;;;;;;0.20;0.20;;;7.70;99.90;;;;;;4988519;28;20703;-74
2023/11/16 05:43:59;;;;;;;0.60;0.60;;;7.70;99.90;;;;;;4992241;28;20207;-74
2023/11/16 05:46:25;;;;;;;0.40;0.40;;;7.70;99.90;;;;;;4992759;28;20214;-74
2023/11/16 05:48:52;;;;;;;3.60;0.68;;;7.70;99.90;;;;;;4993167;28;20251;-75
2023/11/16 05:51:19;;;;;;;0.40;0.40;;;7.60;99.90;;;;;;4990870;28;20259;-74
2023/11/16 05:53:47;;;;;;;0.30;0.30;;;7.60;99.90;;;;;;4991250;28;20565;-75
2023/11/16 05:56:14;;;;;;;0.30;0.30;;;7.60;99.90;;;;;;4989518;28;20211;-74
2023/11/16 05:58:42;;;;;;;0.30;0.30;;;7.50;99.90;;;;;;4990318;28;20278;-74
2023/11/16 06:01:13;;;;;;;0.45;0.45;;;7.50;99.90;;;;;;4987166;28;20276;-74
2023/11/16 06:03:40;;;;;;;0.20;0.20;;;7.50;99.90;;;;;;4990524;28;20234;-74
2023/11/16 06:06:08;;;;;;;0.30;0.30;;;7.40;99.90;;;;;;4988624;28;20335;-74
2023/11/16 06:08:37;;;;;;;0.43;0.30;;;7.40;99.90;;;;;;4991596;28;20282;-74
2023/11/16 06:11:08;;;;;;;0.20;0.20;;;7.40;99.90;;;;;;4989643;28;20316;-74
2023/11/16 06:13:34;;;;;;;1.90;0.30;;;7.40;99.90;;;;;;4991675;28;20238;-74
2023/11/16 06:16:02;;;;;;;0.35;0.25;;;7.40;99.90;;;;;;5004766;23;20232;-71
2023/11/16 06:18:28;;;;;;;0.20;0.20;;;7.30;99.90;;;;;;4982164;28;20208;-71
2023/11/16 06:20:55;;;;;;;0.30;0.30;;;7.30;99.90;;;;;;4979589;28;20658;-73
2023/11/16 06:23:22;;;;;;;0.25;0.25;;;7.30;99.90;;;;;;4976801;28;20204;-73
2023/11/16 06:25:48;;;;;;;0.47;0.47;;;7.30;99.90;;;;;;4975249;28;20318;-73
2023/11/16 06:28:16;;;;;;;0.40;0.40;;;7.30;99.90;;;;;;4966581;28;20205;-73
2023/11/16 06:30:43;;;;;;;0.20;0.20;;;7.20;99.90;;;;;;4970425;28;20644;-74
2023/11/16 06:33:10;;;;;;;0.32;0.32;;;7.20;99.90;;;;;;4967500;28;20235;-73
2023/11/16 06:35:37;;;;;;;0.32;0.32;;;7.20;99.90;;;;;;4965917;28;20248;-74
2023/11/16 06:38:04;;;;;;;0.22;0.22;;;7.20;99.90;;;;;;4961567;28;20213;-72
2023/11/16 06:40:30;;;;;;;0.55;0.40;;;7.20;99.90;;;;;;4962149;28;20307;-72
2023/11/16 06:42:59;;;;;;;1.90;1.80;;;7.20;99.90;;;;;;4961101;28;20205;-72
2023/11/16 06:45:28;;;;;;;0.50;0.50;;;7.20;99.90;;;;;;4963159;28;20247;-73
2023/11/16 06:47:55;;;;;;;0.30;0.30;;;7.20;99.90;;;;;;4972632;28;20698;-72
2023/11/16 06:50:22;;;;;;;0.30;0.30;;;7.20;99.90;;;;;;4964186;28;20213;-72
2023/11/16 06:52:49;;;;;;;0.40;0.40;;;7.20;99.90;;;;;;4960806;28;20205;-73
2023/11/16 06:55:17;;;;;;;0.20;0.20;;;7.20;99.90;;;;;;4965288;28;20212;-73
2023/11/16 06:57:45;;;;;;;0.40;0.40;;;7.20;99.90;;;;;;4966146;28;20264;-73
2023/11/16 07:00:16;;;;;;;0.28;0.28;;;7.10;99.90;;;;;;4966103;28;20914;-73
2023/11/16 07:02:45;;;;;;;2.05;0.50;;;7.10;99.90;;;;;;4965622;28;20626;-71
2023/11/16 07:05:12;;;;;;;0.60;0.60;;;7.00;99.90;;;;;;4961916;28;20221;-73
2023/11/16 07:07:39;;;;;;;0.95;0.60;;;7.00;99.90;;;;;;4964795;28;20230;-72
2023/11/16 07:10:08;;;;;;;4.00;2.42;;;7.00;99.90;;;;;;4970544;28;20205;-71
2023/11/16 07:12:35;;;;;;;0.30;0.30;;;6.90;99.90;;;;;;4975300;28;20208;-71
2023/11/16 07:15:04;;;;;;;0.40;0.40;;;6.90;99.90;;;;;;4973689;28;20308;-72
2023/11/16 07:17:31;;;;;;;2.83;0.55;;;6.90;99.90;;;;;;4969533;28;20243;-71
2023/11/16 07:20:00;;;;;;;1.00;0.73;;;6.90;99.90;;;;;;4969490;28;20208;-71
2023/11/16 07:22:29;;;;;;;0.70;0.70;;;6.90;99.90;;;;;;4972334;28;20655;-72
2023/11/16 07:24:56;;;;;;;0.80;0.80;;;7.00;99.90;;;;;;4971527;28;20209;-72
2023/11/16 07:27:23;;;;;;;1.65;1.65;;;7.00;99.90;;;;;;4965690;28;20250;-72
2023/11/16 07:29:50;;;;;;;3.10;1.10;;;7.00;99.90;;;;;;4968205;28;20235;-72
2023/11/16 07:32:35;;;;;;;0.93;0.93;;;7.00;99.90;;;;;;4964980;28;20850;-72
2023/11/16 07:35:14;;;;;;;0.60;0.60;;;7.00;99.90;;;;;;4965089;28;20606;-71
2023/11/16 07:37:40;;;;;;;1.05;1.00;;;7.00;99.90;;;;;;4968565;28;20232;-71
2023/11/16 07:40:11;;;;;;;1.23;1.23;;;7.00;99.90;;;;;;4963153;28;20205;-71
2023/11/16 07:42:39;;;;;;;0.70;0.70;;;7.00;99.90;;;;;;4970529;28;20472;-72
2023/11/16 07:45:09;;;;;;;0.52;0.52;;;7.00;99.90;;;;;;4968214;28;20211;-71
2023/11/16 07:47:37;;;;;;;0.43;0.43;;;7.00;99.90;;;;;;4972628;28;20233;-72
2023/11/16 07:50:06;;;;;;;0.25;0.25;;;7.00;99.90;;;;;;4964508;28;20636;-71
2023/11/16 07:52:42;;;;;;;0.40;0.40;;;7.00;99.90;;;;;;4967062;28;20212;-73
2023/11/16 07:55:09;;;;;;;0.43;0.43;;;7.00;99.90;;;;;;4972526;28;20224;-73
2023/11/16 07:57:37;;;;;;;0.50;0.50;;;7.00;99.90;;;;;;4969161;28;20236;-73
2023/11/16 08:00:13;;;;;;;2.40;0.60;;;7.00;99.90;;;;;;4971718;28;20239;-72
2023/11/16 08:05:26;;;;;;;0.60;0.60;;;7.00;99.90;;;;;;4972427;28;20204;-74
2023/11/16 08:07:54;;;;;;;0.95;0.95;;;7.00;99.90;;;;;;4966668;28;20210;-72
2023/11/16 08:10:23;;;;;;;0.47;0.47;;;6.90;99.90;;;;;;4964560;28;20690;-78
2023/11/16 08:12:51;;;;;;;3.03;0.50;;;7.00;99.90;;;;;;4975973;28;20220;-75
2023/11/16 08:15:18;;;;;;;0.40;0.40;;;7.00;99.90;;;;;;4975595;28;20251;-73
2023/11/16 08:17:45;;;;;;;0.68;0.55;;;7.00;99.90;;;;;;4974049;28;20288;-73
2023/11/16 08:20:13;;;;;;;0.30;0.30;;;7.00;99.90;;;;;;4974549;28;20401;-73
2023/11/16 08:22:42;;;;;;;0.60;0.60;;;7.00;99.90;;;;;;4966647;28;20205;-72
2023/11/16 08:25:09;;;;;;;4.78;0.55;;;7.00;99.90;;;;;;4960105;28;20220;-73
2023/11/16 08:27:36;;;;;;;0.60;0.60;;;7.00;99.90;;;;;;4975493;28;20345;-72
2023/11/16 08:30:03;;;;;;;0.30;0.30;;;7.00;99.90;;;;;;4975417;28;20213;-73
2023/11/16 08:32:31;;;;;;;0.82;0.30;;;7.00;99.90;;;;;;4974976;28;20212;-72
2023/11/16 08:34:58;;;;;;;0.35;0.30;;;7.10;99.90;;;;;;4978967;28;20225;-72
2023/11/16 08:37:25;;;;;;;0.40;0.40;;;7.10;99.90;;;;;;4971328;28;20320;-72
2023/11/16 08:39:53;;;;;;;0.35;0.35;;;7.10;99.90;;;;;;4967524;28;20209;-74
2023/11/16 08:42:23;;;;;;;0.60;0.40;;;7.20;99.90;;;;;;4967522;28;20208;-73
2023/11/16 08:44:50;;;;;;;0.32;0.32;;;7.20;99.90;;;;;;4975977;28;20208;-73
2023/11/16 08:47:18;;;;;;;0.55;0.55;;;7.20;99.90;;;;;;4974117;28;20238;-72
2023/11/16 08:49:47;;;;;;;0.65;0.65;;;7.20;99.90;;;;;;4975266;28;20295;-73
2023/11/16 08:52:14;;;;;;;0.40;0.40;;;7.20;99.90;;;;;;4973548;28;20219;-73
2023/11/16 08:54:41;;;;;;;0.70;0.70;;;7.20;99.90;;;;;;4960129;28;20228;-72
2023/11/16 08:57:11;;;;;;;2.40;0.80;;;7.30;99.90;;;;;;4966863;28;20232;-75
2023/11/16 08:59:58;;;;;;;0.50;0.50;;;7.30;99.90;;;;;;4976143;28;20232;-73
2023/11/16 09:02:23;;;;;;;0.52;0.52;;;7.40;99.90;;;;;;4974671;28;20206;-74
2023/11/16 09:04:50;;;;;;;1.77;0.40;;;7.50;99.90;;;;;;4974487;28;20208;-72
2023/11/16 09:07:17;;;;;;;0.50;0.50;;;7.50;99.90;;;;;;4971215;28;20308;-72
2023/11/16 09:09:45;;;;;;;0.40;0.40;;;7.50;99.90;;;;;;4957647;28;20207;-73
2023/11/16 09:12:16;;;;;;;0.40;0.40;;;7.50;99.90;;;;;;4973727;28;20601;-73
2023/11/16 09:14:43;;;;;;;0.88;0.88;;;7.60;99.90;;;;;;4970697;28;20316;-74
2023/11/16 09:17:17;;;;;;;0.65;0.65;;;7.60;99.90;;;;;;4966188;28;20246;-73
2023/11/16 09:19:44;;;;;;;0.50;0.50;;;7.60;99.90;;;;;;4965380;28;20667;-73
2023/11/16 09:22:11;;;;;;;0.40;0.40;;;7.60;99.90;;;;;;4969438;28;20216;-73
2023/11/16 09:24:39;;;;;;;0.82;0.70;;;7.60;99.90;;;;;;4966202;28;20201;-73
2023/11/16 09:27:06;;;;;;;0.43;0.43;;;7.60;99.90;;;;;;4965760;28;20225;-73
2023/11/16 09:29:38;;;;;;;2.15;0.75;;;7.70;99.90;;;;;;4968928;28;20209;-72
2023/11/16 09:32:06;;;;;;;0.77;0.77;;;7.60;99.90;;;;;;4975600;28;20216;-71
2023/11/16 09:34:33;;;;;;;3.13;0.75;;;7.70;99.90;;;;;;4962796;28;20255;-73
2023/11/16 09:37:01;;;;;;;4.68;0.82;;;7.70;99.90;;;;;;4968196;28;20287;-73
2023/11/16 09:39:28;;;;;;;0.70;0.70;;;7.70;99.90;;;;;;4969114;28;20226;-71
2023/11/16 09:41:55;;;;;;;2.55;1.20;;;7.80;99.90;;;;;;4963235;28;20213;-72
2023/11/16 09:44:28;;;;;;;2.28;0.50;;;7.80;99.90;;;;;;4961971;28;20210;-72
2023/11/16 09:47:03;;;;;;;0.80;0.80;;;7.80;99.90;;;;;;4963901;28;20237;-72
2023/11/16 09:49:31;;;;;;;1.00;1.00;;;7.70;99.90;;;;;;4972967;28;20589;-72
2023/11/16 09:51:59;;;;;;;0.88;0.77;;;7.80;99.90;;;;;;4966011;28;20257;-72
2023/11/16 09:54:28;;;;;;;3.40;1.20;;;7.80;99.90;;;;;;4968870;28;20221;-72
2023/11/16 09:57:00;;;;;;;0.68;0.68;;;7.90;99.90;;;;;;4968039;28;20225;-72
2023/11/16 09:59:37;;;;;;;1.10;1.10;;;7.80;99.90;;;;;;4960790;28;20268;-72
2023/11/16 10:02:09;;;;;;;1.98;1.75;;;7.90;99.90;;;;;;4976431;28;20212;-72
2023/11/16 10:04:41;;;;;;;1.40;1.30;;;8.00;99.90;;;;;;4974201;28;20201;-72
2023/11/16 10:07:12;;;;;;;1.25;0.80;;;7.90;99.90;;;;;;4974160;28;20238;-72
2023/11/16 10:09:41;;;;;;;0.70;0.70;;;7.90;99.90;;;;;;4964574;28;20210;-72
2023/11/16 10:12:09;;;;;;;0.77;0.77;;;7.90;99.90;;;;;;4959705;28;20208;-72
2023/11/16 10:14:40;;;;;;;0.60;0.60;;;7.80;99.90;;;;;;4970585;28;20233;-72
2023/11/16 10:17:08;;;;;;;1.17;1.10;;;7.80;99.90;;;;;;4959330;28;20320;-72
2023/11/16 10:19:35;;;;;;;0.70;0.70;;;7.90;99.90;;;;;;4971498;28;20639;-72
2023/11/16 10:22:02;;;;;;;0.90;0.90;;;7.90;99.90;;;;;;4966087;28;20212;-73
2023/11/16 10:24:29;;;;;;;1.10;1.10;;;7.90;99.90;;;;;;4964757;28;20604;-71
2023/11/16 10:26:57;;;;;;;1.17;1.17;;;8.00;99.90;;;;;;4966694;28;20316;-72
2023/11/16 10:29:24;;;;;;;1.17;1.08;;;8.00;99.90;;;;;;4961334;28;20284;-73
2023/11/16 10:31:51;;;;;;;0.95;0.95;;;8.10;99.90;;;;;;4965790;28;20211;-72
2023/11/16 10:34:23;;;;;;;1.00;1.00;;;8.10;99.90;;;;;;4967988;28;20230;-72
2023/11/16 10:36:55;;;;;;;0.93;0.93;;;8.10;99.90;;;;;;4959797;28;20240;-72
2023/11/16 10:39:23;;;;;;;0.90;0.90;;;8.10;99.90;;;;;;4961172;28;20680;-72
2023/11/16 10:41:50;;;;;;;0.88;0.82;;;8.10;99.90;;;;;;4966575;28;20202;-71
2023/11/16 10:44:18;;;;;;;0.95;0.95;;;8.00;99.90;;;;;;4968846;28;20222;-71
2023/11/16 10:46:45;;;;;;;0.70;0.70;;;8.00;99.90;;;;;;4968855;28;20250;-71
2023/11/16 10:49:13;;;;;;;0.93;0.65;;;7.80;99.90;;;;;;4968764;28;20221;-71
2023/11/16 10:51:47;;;;;;;0.60;0.60;;;7.70;99.90;;;;;;4969539;28;20665;-72
2023/11/16 10:54:18;;;;;;;1.23;1.23;;;7.50;99.90;;;;;;4971731;28;20208;-71
2023/11/16 10:56:47;;;;;;;1.35;1.33;;;7.40;99.90;;;;;;4976727;28;20232;-72
2023/11/16 10:59:17;;;;;;;3.00;2.90;;;7.30;99.90;;;;;;4979633;28;20208;-72
2023/11/16 11:01:44;;;;;;;1.17;1.17;;;7.30;99.90;;;;;;4977218;28;20205;-73
2023/11/16 11:04:11;;;;;;;1.30;1.30;;;7.30;99.90;;;;;;4976591;28;20220;-72
2023/11/16 11:06:42;;;;;;;1.90;1.80;;;7.30;99.90;;;;;;4979319;28;20250;-73
2023/11/16 11:09:15;;;;;;;1.52;1.52;;;7.40;99.90;;;;;;4970094;28;20212;-72
2023/11/16 11:11:45;;;;;;;0.73;0.73;;;7.40;99.90;;;;;;4961745;28;20221;-72
2023/11/16 11:14:13;;;;;;;1.25;1.25;;;7.50;99.90;;;;;;4966798;28;20299;-71
2023/11/16 11:16:40;;;;;;;1.83;1.73;;;7.50;99.90;;;;;;4965011;28;20270;-72
2023/11/16 11:19:09;;;;;;;0.50;0.50;;;7.60;99.90;;;;;;4970803;28;20251;-71
2023/11/16 11:21:49;;;;;;;1.45;1.30;;;7.60;99.90;;;;;;4965764;28;20209;-72
2023/11/16 11:24:17;;;;;;;1.15;1.05;;;7.60;99.90;;;;;;4963227;28;20303;-70
2023/11/16 11:26:48;;;;;;;1.45;1.35;;;7.60;99.90;;;;;;4972172;28;20667;-71
2023/11/16 11:29:15;;;;;;;1.10;1.10;;;7.50;99.90;;;;;;4962565;28;20211;-72
2023/11/16 11:31:51;;;;;;;0.90;0.90;;;7.40;99.90;;;;;;4969677;28;20207;-72
2023/11/16 11:34:17;;;;;;;0.95;0.95;;;7.30;99.90;;;;;;4966791;28;20291;-71
2023/11/16 11:36:44;;;;;;;2.20;2.00;;;7.30;99.90;;;;;;4964680;28;20595;-74
2023/11/16 11:39:14;;;;;;;1.00;1.00;;;7.20;99.90;;;;;;4962421;28;20637;-70
2023/11/16 11:41:55;;;;;;;1.17;1.08;;;7.20;99.90;;;;;;4959199;28;20205;-72
2023/11/16 11:44:22;;;;;;;1.17;1.13;;;7.10;99.90;;;;;;4959688;28;20572;-72
2023/11/16 11:46:49;;;;;;;1.00;1.00;;;7.20;99.90;;;;;;4961876;28;20252;-72
2023/11/16 11:49:17;;;;;;;0.70;0.70;;;7.20;99.90;;;;;;4964702;28;20216;-72
2023/11/16 11:51:45;;;;;;;0.65;0.65;;;7.20;99.90;;;;;;4967464;28;20275;-72
2023/11/16 11:54:13;;;;;;;0.80;0.80;;;7.30;99.90;;;;;;4961307;28;20213;-72
2023/11/16 11:56:46;;;;;;;1.20;1.20;;;7.30;99.90;;;;;;4959826;28;20236;-72
2023/11/16 11:59:13;;;;;;;0.95;0.95;;;7.40;99.90;;;;;;4954210;28;20264;-73
2023/11/16 12:01:40;;;;;;;1.23;1.10;;;7.40;99.90;;;;;;4960534;28;20229;-73
2023/11/16 12:04:08;;;;;;;1.27;1.08;;;7.50;99.90;;;;;;4959352;28;20214;-73
2023/11/16 12:06:35;;;;;;;1.48;1.15;;;7.50;99.90;;;;;;4959125;28;20604;-72
2023/11/16 12:09:03;;;;;;;2.22;1.45;;;7.50;99.90;;;;;;4954543;28;20212;-73
2023/11/16 12:11:31;;;;;;;3.83;1.60;;;7.60;99.90;;;;;;4965748;28;20672;-73
2023/11/16 12:14:01;;;;;;;0.98;0.98;;;7.70;99.90;;;;;;4959241;28;20202;-73
2023/11/16 12:16:30;;;;;;;0.90;0.90;;;7.80;99.90;;;;;;4988478;23;20613;-71
2023/11/16 12:18:57;;;;;;;1.40;1.30;;;8.00;99.90;;;;;;4968546;28;20205;-71
2023/11/16 12:21:25;;;;;;;2.00;1.80;;;8.10;99.90;;;;;;4967203;28;20209;-71
2023/11/16 12:23:54;;;;;;;1.80;1.70;;;8.10;99.90;;;;;;4969299;28;20240;-71
2023/11/16 12:26:25;;;;;;;3.92;1.60;;;8.10;99.90;;;;;;4968213;28;20233;-71
2023/11/16 12:28:52;;;;;;;0.52;0.52;;;8.10;99.90;;;;;;4965924;28;20213;-71
2023/11/16 12:31:21;;;;;;;1.25;0.77;;;7.90;99.90;;;;;;4969546;28;20208;-71
2023/11/16 12:33:49;;;;;;;1.75;1.70;;;7.80;99.90;;;;;;4969734;28;20827;-71
2023/11/16 12:36:19;;;;;;;0.98;0.98;;;7.70;99.90;;;;;;4967357;28;20229;-70
2023/11/16 12:38:48;;;;;;;1.10;1.10;;;7.70;99.90;;;;;;4963934;28;20628;-71
2023/11/16 12:41:14;;;;;;;2.35;1.88;;;7.60;99.90;;;;;;4970379;28;20567;-71
2023/11/16 12:43:41;;;;;;;1.05;1.05;;;7.70;99.90;;;;;;4972270;28;20219;-72
2023/11/16 12:46:08;;;;;;;1.30;1.20;;;7.60;99.90;;;;;;4972659;28;20588;-70
2023/11/16 12:48:36;;;;;;;1.55;1.45;;;7.60;99.90;;;;;;4969691;28;20219;-71
2023/11/16 12:51:03;;;;;;;1.30;1.30;;;7.50;99.90;;;;;;4969237;28;20227;-72
2023/11/16 12:53:30;;;;;;;1.77;1.30;;;7.50;99.90;;;;;;4964596;28;20359;-71
2023/11/16 12:55:58;;;;;;;8.38;4.55;;;7.50;99.90;;;;;;4970678;28;20228;-71
2023/11/16 12:58:28;;;;;;;2.58;2.35;;;7.60;99.90;;;;;;4968407;28;20220;-71
2023/11/16 13:00:56;;;;;;;2.00;1.45;;;7.70;99.90;;;;;;4971807;28;20309;-72
2023/11/16 13:03:24;;;;;;;1.42;1.42;;;7.70;99.90;;;;;;4966692;28;20265;-71
2023/11/16 13:05:52;;;;;;;1.05;0.90;;;7.90;99.90;;;;;;4970923;28;20210;-71
2023/11/16 13:08:20;;;;;;;1.50;1.40;;;7.90;99.90;;;;;;4964423;28;20215;-71
2023/11/16 13:10:48;;;;;;;1.10;1.10;;;7.90;99.90;;;;;;4966764;28;20209;-71
2023/11/16 13:13:14;;;;;;;0.80;0.80;;;8.00;99.90;;;;;;4972020;28;20522;-72
2023/11/16 13:15:41;;;;;;;0.77;0.77;;;8.00;99.90;;;;;;4971200;28;20228;-72
2023/11/16 13:18:08;;;;;;;1.05;1.05;;;8.00;99.90;;;;;;4971719;28;20237;-71
2023/11/16 13:20:35;;;;;;;2.00;1.88;;;7.80;99.90;;;;;;4972995;28;20204;-72
2023/11/16 13:23:04;;;;;;;0.95;0.95;;;7.80;99.90;;;;;;4969177;28;20310;-72
2023/11/16 13:25:30;;;;;;;1.48;1.38;;;7.70;99.90;;;;;;4969974;28;20300;-71
2023/11/16 13:27:57;;;;;;;1.58;1.48;;;7.70;99.90;;;;;;4973463;28;20224;-71
2023/11/16 13:30:24;;;;;;;1.20;1.20;;;7.80;99.90;;;;;;4969495;28;20205;-71
2023/11/16 13:32:52;;;;;;;1.30;1.30;;;7.90;99.90;;;;;;4969278;28;20218;-71
2023/11/16 13:35:18;;;;;;;0.98;0.98;;;7.90;99.90;;;;;;4967792;28;20233;-72
2023/11/16 13:37:45;;;;;;;1.30;1.30;;;7.80;99.90;;;;;;4963876;28;20232;-71
2023/11/16 13:40:15;;;;;;;1.70;1.60;;;7.80;99.90;;;;;;4970485;28;20204;-72
2023/11/16 13:42:42;;;;;;;1.35;1.35;;;7.80;99.90;;;;;;4969594;28;20205;-72
2023/11/16 13:45:12;;;;;;;1.83;1.73;;;7.80;99.90;;;;;;4967738;28;20696;-73
2023/11/16 13:47:38;;;;;;;2.33;2.15;;;7.80;99.90;;;;;;4959855;28;20715;-71
2023/11/16 13:50:06;;;;;;;2.42;2.33;;;7.80;99.90;;;;;;4965768;28;20204;-72
2023/11/16 13:52:36;;;;;;;1.73;1.65;;;7.70;99.90;;;;;;4959473;28;20204;-71
2023/11/16 13:55:03;;;;;;;1.42;1.42;;;7.70;99.90;;;;;;4965908;28;20209;-68
2023/11/16 13:57:32;;;;;;;1.52;1.52;;;7.70;99.90;;;;;;4960281;28;20226;-69
2023/11/16 13:59:59;;;;;;;2.10;2.10;;;7.70;99.90;;;;;;4962230;28;20560;-71
2023/11/16 14:02:26;;;;;;;1.40;1.40;;;7.60;99.90;;;;;;4966037;28;20206;-71
2023/11/16 14:04:53;;;;;;;1.80;1.75;;;7.60;99.90;;;;;;4967015;28;20220;-72
2023/11/16 14:07:25;;;;;;;2.35;2.25;;;7.60;99.90;;;;;;4964584;28;20234;-71
2023/11/16 14:09:53;;;;;;;2.20;2.17;;;7.50;99.90;;;;;;4966917;28;20809;-71
2023/11/16 14:12:20;;;;;;;7.82;4.22;;;7.50;99.90;;;;;;4970441;28;20216;-71
2023/11/16 14:14:48;;;;;;;5.18;4.78;;;7.50;99.90;;;;;;4971562;28;20216;-71
2023/11/16 14:17:17;;;;;;;2.80;2.60;;;7.50;99.90;;;;;;4969006;28;20243;-71
2023/11/16 14:19:43;;;;;;;1.90;1.90;;;7.50;99.90;;;;;;4971485;28;20219;-71
2023/11/16 14:22:10;;;;;;;2.22;2.13;;;7.40;99.90;;;;;;4960288;28;20220;-71
2023/11/16 14:24:38;;;;;;;2.83;2.72;;;7.40;99.90;;;;;;4965859;28;20215;-71
2023/11/16 14:27:06;;;;;;;2.30;2.20;;;7.30;99.90;;;;;;4969349;28;20223;-71
2023/11/16 14:29:34;;;;;;;2.63;2.47;;;7.30;99.90;;;;;;4971779;28;20215;-70
2023/11/16 14:32:02;;;;;;;2.53;2.33;;;7.30;99.90;;;;;;4970244;28;20216;-71
2023/11/16 14:34:30;;;;;;;2.15;2.05;;;7.20;99.90;;;;;;4973094;28;20230;-71
2023/11/16 14:36:57;;;;;;;2.40;2.15;;;7.20;99.90;;;;;;4970811;28;20755;-71
2023/11/16 14:39:23;;;;;;;1.80;1.80;;;7.10;99.90;;;;;;4955470;28;20561;-71
2023/11/16 14:41:50;;;;;;;2.70;2.50;;;7.10;99.90;;;;;;4960408;28;20205;-72
2023/11/16 14:44:17;;;;;;;3.80;3.60;;;7.10;99.90;;;;;;4969620;28;20609;-73
2023/11/16 14:46:45;;;;;;;2.65;2.38;;;7.10;99.90;;;;;;4970082;28;20290;-71
2023/11/16 14:49:14;;;;;;;1.95;1.95;;;7.00;99.90;;;;;;4969764;28;20217;-71
2023/11/16 14:51:42;;;;;;;2.20;2.10;;;7.00;99.90;;;;;;4965296;28;20205;-71
2023/11/16 14:54:11;;;;;;;2.90;2.80;;;6.90;99.90;;;;;;4965262;28;20200;-71
2023/11/16 14:56:37;;;;;;;2.20;2.20;;;6.90;99.90;;;;;;4958954;28;20283;-71
2023/11/16 14:59:07;;;;;;;2.40;2.30;;;6.90;99.90;;;;;;4962096;28;20232;-71
2023/11/16 15:01:34;;;;;;;2.47;2.40;;;6.80;99.90;;;;;;4964342;28;20679;-71
2023/11/16 15:04:01;;;;;;;2.00;2.00;;;6.80;99.90;;;;;;4967817;28;20215;-70
2023/11/16 15:06:30;;;;;;;6.05;4.20;;;6.70;99.90;;;;;;4969398;28;20245;-70
2023/11/16 15:08:57;;;;;;;3.95;3.53;;;6.70;99.90;;;;;;4969913;28;20588;-71
2023/11/16 15:11:24;;;;;;;3.30;3.17;;;6.70;99.90;;;;;;4962009;28;20663;-71
2023/11/16 15:13:51;;;;;;;2.97;2.88;;;6.70;99.90;;;;;;4961796;28;20209;-71
2023/11/16 15:16:18;;;;;;;3.05;2.70;;;6.70;99.90;;;;;;4969360;28;20232;-70
2023/11/16 15:18:45;;;;;;;2.08;2.08;;;6.70;99.90;;;;;;4969973;28;20207;-70
2023/11/16 15:21:12;;;;;;;2.67;2.58;;;6.70;99.90;;;;;;4969055;28;20210;-70
2023/11/16 15:23:40;;;;;;;1.70;1.70;;;6.60;99.90;;;;;;4967239;28;20216;-70
2023/11/16 15:26:07;;;;;;;2.45;2.35;;;6.60;99.90;;;;;;4970105;28;20232;-70
2023/11/16 15:28:35;;;;;;;3.15;2.95;;;6.50;99.90;;;;;;4961912;28;20222;-70
2023/11/16 15:31:02;;;;;;;2.45;2.35;;;6.50;99.90;;;;;;4960968;28;20212;-70
2023/11/16 15:33:29;;;;;;;3.63;3.40;;;6.50;99.90;;;;;;4970210;28;20285;-70
2023/11/16 15:35:56;;;;;;;11.18;7.15;;;6.50;99.90;;;;;;4970110;28;20225;-70
2023/11/16 15:38:22;;;;;;;18.08;8.77;;;6.50;99.90;;;;;;4969313;28;20212;-70
2023/11/16 15:40:50;;;;;;;10.02;6.15;;;6.50;99.90;;;;;;4964503;28;20258;-70
2023/11/16 15:43:18;;;;;;;7.50;5.40;;;6.50;99.90;;;;;;4968737;28;20213;-73
2023/11/16 15:45:45;;;;;;;16.27;9.32;;;6.50;99.90;;;;;;4970421;28;20208;-73
2023/11/16 15:48:11;;;;;;;8.18;6.47;;;6.60;99.90;;;;;;4968735;28;20361;-73
2023/11/16 15:50:38;;;;;;;9.07;7.57;;;6.60;99.90;;;;;;4964478;28;20586;-72
2023/11/16 15:53:05;;;;;;;5.40;4.82;;;6.60;99.90;;;;;;4964891;28;20217;-72
2023/11/16 15:55:31;;;;;;;7.43;6.18;;;6.60;99.90;;;;;;4969668;28;20228;-72
2023/11/16 15:58:00;;;;;;;11.18;7.68;;;6.60;99.90;;;;;;4969182;28;20235;-73
2023/11/16 16:00:27;;;;;;;4.80;4.30;;;6.50;99.90;;;;;;4965525;28;20344;-72
2023/11/16 16:02:54;;;;;;;4.60;3.85;;;6.50;99.90;;;;;;4969424;28;20205;-73
2023/11/16 16:05:20;;;;;;;14.25;7.07;;;6.50;99.90;;;;;;4969140;28;20215;-73
2023/11/16 16:07:49;;;;;;;5.85;4.55;;;6.50;99.90;;;;;;4972480;28;20563;-73
2023/11/16 16:10:17;;;;;;;5.47;5.07;;;6.50;99.90;;;;;;4966021;28;20221;-73
2023/11/16 16:12:43;;;;;;;3.05;2.85;;;6.50;99.90;;;;;;4973147;28;20208;-73
2023/11/16 16:15:13;;;;;;;3.17;2.97;;;6.50;99.90;;;;;;4973830;28;20873;-74
2023/11/16 16:17:40;;;;;;;2.58;2.47;;;6.50;99.90;;;;;;4973571;28;20228;-73
2023/11/16 16:20:09;;;;;;;2.60;2.40;;;6.50;99.90;;;;;;4974114;28;20659;-73
2023/11/16 16:22:36;;;;;;;1.75;1.75;;;6.50;99.90;;;;;;4968018;28;20205;-73
2023/11/16 16:25:03;;;;;;;2.10;2.10;;;6.50;99.90;;;;;;4976838;28;20284;-73
2023/11/16 16:27:30;;;;;;;2.25;2.15;;;6.50;99.90;;;;;;4970604;28;20235;-73
2023/11/16 16:29:56;;;;;;;10.30;6.63;;;6.50;99.90;;;;;;4975921;28;20200;-73
2023/11/16 16:32:29;;;;;;;4.35;3.95;;;6.60;99.90;;;;;;4973517;28;20212;-73
2023/11/16 16:34:55;;;;;;;21.60;13.20;;;6.50;99.90;;;;;;4971767;28;20697;-73
2023/11/16 16:37:22;;;;;;;8.40;6.60;;;6.60;99.90;;;;;;4972428;28;20240;-73
2023/11/16 16:39:49;;;;;;;5.35;5.05;;;6.60;99.90;;;;;;4972604;28;20208;-73
2023/11/16 16:42:15;;;;;;;3.35;3.15;;;6.60;99.90;;;;;;4973011;28;20220;-73
2023/11/16 16:44:42;;;;;;;12.80;7.50;;;6.50;99.90;;;;;;4973496;28;20205;-73
2023/11/16 16:47:09;;;;;;;5.32;4.82;;;6.60;99.90;;;;;;4971597;28;20225;-73
2023/11/16 16:49:37;;;;;;;5.47;4.07;;;6.50;99.90;;;;;;4970824;28;20204;-73
2023/11/16 16:52:04;;;;;;;4.43;4.05;;;6.50;99.90;;;;;;4972660;28;20205;-73
2023/11/16 16:54:30;;;;;;;2.78;2.58;;;6.40;99.90;;;;;;4974760;28;20236;-73
2023/11/16 16:56:57;;;;;;;6.00;5.45;;;6.40;99.90;;;;;;4972694;28;20694;-73
2023/11/16 16:59:25;;;;;;;4.07;3.80;;;6.40;99.90;;;;;;4962901;28;20206;-73
2023/11/16 17:01:51;;;;;;;5.47;3.55;;;6.50;99.90;;;;;;4966662;28;20212;-73
2023/11/16 17:04:18;;;;;;;3.53;3.33;;;6.50;99.90;;;;;;4973828;28;20219;-73
2023/11/16 17:06:47;;;;;;;2.50;2.38;;;6.50;99.90;;;;;;4969744;28;20295;-73
2023/11/16 17:09:16;;;;;;;2.78;2.60;;;6.50;99.90;;;;;;4971698;28;20223;-73
2023/11/16 17:11:43;;;;;;;2.53;2.50;;;6.50;99.90;;;;;;4970886;28;20204;-73
2023/11/16 17:14:10;;;;;;;3.28;3.03;;;6.40;99.90;;;;;;4963967;28;20675;-73
2023/11/16 17:16:38;;;;;;;2.90;2.80;;;6.40;99.90;;;;;;4970685;28;20236;-73
2023/11/16 17:19:05;;;;;;;2.95;2.70;;;6.40;99.90;;;;;;4973311;28;20204;-73
2023/11/16 17:21:32;;;;;;;4.10;2.78;;;6.40;99.90;;;;;;4969529;28;20205;-73
2023/11/16 17:24:01;;;;;;;2.05;1.95;;;6.40;99.90;;;;;;4974102;28;20212;-74
2023/11/16 17:26:28;;;;;;;4.50;4.10;;;6.40;99.90;;;;;;4967151;28;20252;-73
2023/11/16 17:28:57;;;;;;;4.22;4.00;;;6.40;99.90;;;;;;4968695;28;20264;-73
2023/11/16 17:31:24;;;;;;;3.20;3.00;;;6.40;99.90;;;;;;4964684;28;20201;-73
2023/11/16 17:33:51;;;;;;;2.40;2.30;;;6.40;99.90;;;;;;4966478;28;20204;-73
2023/11/16 17:36:18;;;;;;;2.33;2.33;;;6.40;99.90;;;;;;4972195;28;20255;-73
2023/11/16 17:38:44;;;;;;;2.05;1.98;;;6.40;99.90;;;;;;4970702;28;20209;-73
2023/11/16 17:41:14;;;;;;;3.08;2.83;;;6.30;99.90;;;;;;4965676;28;20212;-72
2023/11/16 17:43:41;;;;;;;2.80;2.60;;;6.40;99.90;;;;;;4969884;28;20740;-73
2023/11/16 17:46:08;;;;;;;2.53;1.77;;;6.30;99.90;;;;;;4970308;28;20329;-73
2023/11/16 17:48:36;;;;;;;1.50;1.40;;;6.30;99.90;;;;;;4969858;28;20204;-73
2023/11/16 17:51:04;;;;;;;1.52;1.52;;;6.30;99.90;;;;;;4962773;28;20201;-73
2023/11/16 17:53:31;;;;;;;1.60;1.60;;;6.30;99.90;;;;;;4960387;28;20215;-73
2023/11/16 17:56:00;;;;;;;2.53;2.30;;;6.30;99.90;;;;;;4967233;28;20233;-72
2023/11/16 17:58:28;;;;;;;2.50;2.20;;;6.20;99.90;;;;;;4968691;28;20231;-72
2023/11/16 18:00:55;;;;;;;3.88;3.47;;;6.20;99.90;;;;;;4967717;28;20205;-72
2023/11/16 18:03:22;;;;;;;2.65;2.55;;;6.20;99.90;;;;;;4965561;28;20252;-72
2023/11/16 18:05:49;;;;;;;4.18;3.75;;;6.20;99.90;;;;;;4967928;28;20212;-72